sensor_id;sensor_type;location;lat;lon;timestamp;temperature;humidity
53254;DHT22;39148;53.332;6.922;2023-05-10T00:03:31;17.50;86.90
53254;DHT22;39148;53.332;6.922;2023-05-10T00:05:57;17.50;88.50
53254;DHT22;39148;53.332;6.922;2023-05-10T00:08:22;17.60;88.50
53254;DHT22;39148;53.332;6.922;2023-05-10T00:10:48;17.50;88.40
53254;DHT22;39148;53.332;6.922;2023-05-10T00:13:14;17.50;88.50
53254;DHT22;39148;53.332;6.922;2023-05-10T00:18:06;17.50;87.00
53254;DHT22;39148;53.332;6.922;2023-05-10T00:20:32;17.50;88.60
53254;DHT22;39148;53.332;6.922;2023-05-10T00:22:57;17.20;88.40
53254;DHT22;39148;53.332;6.922;2023-05-10T00:25:23;17.50;88.50
53254;DHT22;39148;53.332;6.922;2023-05-10T00:27:49;17.50;90.10
53254;DHT22;39148;53.332;6.922;2023-05-10T00:30:15;17.50;88.60
53254;DHT22;39148;53.332;6.922;2023-05-10T00:32:41;17.50;88.70
53254;DHT22;39148;53.332;6.922;2023-05-10T00:35:07;17.40;89.00
53254;DHT22;39148;53.332;6.922;2023-05-10T00:37:33;17.40;88.20
53254;DHT22;39148;53.332;6.922;2023-05-10T00:39:59;17.40;88.60
53254;DHT22;39148;53.332;6.922;2023-05-10T00:42:24;17.30;88.50
53254;DHT22;39148;53.332;6.922;2023-05-10T00:44:50;17.40;88.60
53254;DHT22;39148;53.332;6.922;2023-05-10T00:47:16;17.40;88.60
53254;DHT22;39148;53.332;6.922;2023-05-10T00:49:43;17.40;88.60
53254;DHT22;39148;53.332;6.922;2023-05-10T00:52:09;17.40;88.80
53254;DHT22;39148;53.332;6.922;2023-05-10T00:54:35;17.30;88.80
53254;DHT22;39148;53.332;6.922;2023-05-10T00:57:01;17.30;88.70
53254;DHT22;39148;53.332;6.922;2023-05-10T00:59:27;17.30;88.60
53254;DHT22;39148;53.332;6.922;2023-05-10T01:01:54;17.30;88.80
53254;DHT22;39148;53.332;6.922;2023-05-10T01:04:20;17.40;88.60
53254;DHT22;39148;53.332;6.922;2023-05-10T01:06:53;17.40;88.70
53254;DHT22;39148;53.332;6.922;2023-05-10T01:09:21;17.30;87.80
53254;DHT22;39148;53.332;6.922;2023-05-10T01:11:47;17.30;88.80
53254;DHT22;39148;53.332;6.922;2023-05-10T01:14:13;17.30;88.70
53254;DHT22;39148;53.332;6.922;2023-05-10T01:16:41;17.30;88.80
53254;DHT22;39148;53.332;6.922;2023-05-10T01:19:19;17.20;88.70
53254;DHT22;39148;53.332;6.922;2023-05-10T01:33:24;17.20;87.90
53254;DHT22;39148;53.332;6.922;2023-05-10T01:36:00;17.20;87.80
53254;DHT22;39148;53.332;6.922;2023-05-10T01:41:18;17.20;87.70
53254;DHT22;39148;53.332;6.922;2023-05-10T01:46:28;17.10;89.00
53254;DHT22;39148;53.332;6.922;2023-05-10T01:49:00;17.20;90.10
53254;DHT22;39148;53.332;6.922;2023-05-10T01:51:33;17.10;88.90
53254;DHT22;39148;53.332;6.922;2023-05-10T01:54:02;17.20;88.90
53254;DHT22;39148;53.332;6.922;2023-05-10T01:56:32;17.10;88.70
53254;DHT22;39148;53.332;6.922;2023-05-10T01:59:00;17.10;88.80
53254;DHT22;39148;53.332;6.922;2023-05-10T02:01:27;17.10;88.80
53254;DHT22;39148;53.332;6.922;2023-05-10T02:03:54;17.10;88.70
53254;DHT22;39148;53.332;6.922;2023-05-10T02:06:22;17.20;88.80
53254;DHT22;39148;53.332;6.922;2023-05-10T02:08:50;17.00;88.80
53254;DHT22;39148;53.332;6.922;2023-05-10T02:11:18;17.10;88.80
53254;DHT22;39148;53.332;6.922;2023-05-10T02:13:48;17.00;88.80
53254;DHT22;39148;53.332;6.922;2023-05-10T02:16:16;17.00;90.10
53254;DHT22;39148;53.332;6.922;2023-05-10T02:18:42;17.10;88.80
53254;DHT22;39148;53.332;6.922;2023-05-10T02:21:10;17.10;88.80
53254;DHT22;39148;53.332;6.922;2023-05-10T02:23:37;17.00;88.70
53254;DHT22;39148;53.332;6.922;2023-05-10T02:26:04;17.00;88.70
53254;DHT22;39148;53.332;6.922;2023-05-10T02:28:32;17.00;90.10
53254;DHT22;39148;53.332;6.922;2023-05-10T02:30:58;17.10;88.90
53254;DHT22;39148;53.332;6.922;2023-05-10T02:33:24;17.00;88.70
53254;DHT22;39148;53.332;6.922;2023-05-10T02:35:51;17.00;88.70
53254;DHT22;39148;53.332;6.922;2023-05-10T02:38:19;17.00;90.20
53254;DHT22;39148;53.332;6.922;2023-05-10T02:40:46;16.90;88.80
53254;DHT22;39148;53.332;6.922;2023-05-10T02:43:13;16.90;88.70
53254;DHT22;39148;53.332;6.922;2023-05-10T02:45:40;16.80;88.70
53254;DHT22;39148;53.332;6.922;2023-05-10T02:48:06;17.00;88.80
53254;DHT22;39148;53.332;6.922;2023-05-10T02:50:33;16.90;88.60
53254;DHT22;39148;53.332;6.922;2023-05-10T02:53:06;16.90;88.80
53254;DHT22;39148;53.332;6.922;2023-05-10T02:55:40;16.90;89.30
53254;DHT22;39148;53.332;6.922;2023-05-10T02:58:06;16.80;88.80
53254;DHT22;39148;53.332;6.922;2023-05-10T03:00:32;16.90;89.00
53254;DHT22;39148;53.332;6.922;2023-05-10T03:02:58;16.90;88.70
53254;DHT22;39148;53.332;6.922;2023-05-10T03:05:24;16.90;88.60
53254;DHT22;39148;53.332;6.922;2023-05-10T03:07:50;16.80;88.70
53254;DHT22;39148;53.332;6.922;2023-05-10T03:10:17;16.80;88.70
53254;DHT22;39148;53.332;6.922;2023-05-10T03:13:13;16.80;88.70
53254;DHT22;39148;53.332;6.922;2023-05-10T03:18:23;16.80;88.60
53254;DHT22;39148;53.332;6.922;2023-05-10T03:21:01;16.80;89.00
53254;DHT22;39148;53.332;6.922;2023-05-10T03:26:01;16.80;88.80
53254;DHT22;39148;53.332;6.922;2023-05-10T03:28:27;16.80;88.70
53254;DHT22;39148;53.332;6.922;2023-05-10T03:30:54;16.80;88.70
53254;DHT22;39148;53.332;6.922;2023-05-10T03:33:20;16.80;88.80
53254;DHT22;39148;53.332;6.922;2023-05-10T03:35:46;16.70;88.60
53254;DHT22;39148;53.332;6.922;2023-05-10T03:38:12;16.80;88.70
53254;DHT22;39148;53.332;6.922;2023-05-10T03:40:38;16.70;88.70
53254;DHT22;39148;53.332;6.922;2023-05-10T03:43:04;16.70;88.70
53254;DHT22;39148;53.332;6.922;2023-05-10T03:45:30;16.70;88.60
53254;DHT22;39148;53.332;6.922;2023-05-10T03:47:58;16.80;88.80
53254;DHT22;39148;53.332;6.922;2023-05-10T03:50:24;16.70;88.70
53254;DHT22;39148;53.332;6.922;2023-05-10T03:52:49;16.70;88.60
53254;DHT22;39148;53.332;6.922;2023-05-10T03:55:15;16.70;88.60
53254;DHT22;39148;53.332;6.922;2023-05-10T03:57:41;16.80;90.20
53254;DHT22;39148;53.332;6.922;2023-05-10T04:00:08;16.60;88.60
53254;DHT22;39148;53.332;6.922;2023-05-10T04:02:34;16.70;88.30
53254;DHT22;39148;53.332;6.922;2023-05-10T04:04:59;16.60;88.70
53254;DHT22;39148;53.332;6.922;2023-05-10T04:07:25;16.60;88.70
53254;DHT22;39148;53.332;6.922;2023-05-10T04:09:51;16.60;88.60
53254;DHT22;39148;53.332;6.922;2023-05-10T04:12:17;16.60;88.70
53254;DHT22;39148;53.332;6.922;2023-05-10T04:14:43;16.60;88.70
53254;DHT22;39148;53.332;6.922;2023-05-10T04:17:09;16.60;88.70
53254;DHT22;39148;53.332;6.922;2023-05-10T04:22:02;16.50;87.10
53254;DHT22;39148;53.332;6.922;2023-05-10T04:24:28;16.60;88.90
53254;DHT22;39148;53.332;6.922;2023-05-10T04:26:54;16.60;90.10
53254;DHT22;39148;53.332;6.922;2023-05-10T04:29:20;16.50;88.70
53254;DHT22;39148;53.332;6.922;2023-05-10T04:31:46;16.50;88.70
53254;DHT22;39148;53.332;6.922;2023-05-10T04:36:37;16.50;87.10
53254;DHT22;39148;53.332;6.922;2023-05-10T04:39:04;16.50;88.30
53254;DHT22;39148;53.332;6.922;2023-05-10T04:41:30;16.40;90.10
53254;DHT22;39148;53.332;6.922;2023-05-10T04:43:55;16.70;90.20
53254;DHT22;39148;53.332;6.922;2023-05-10T04:46:21;16.50;88.70
53254;DHT22;39148;53.332;6.922;2023-05-10T04:48:47;16.50;88.70
53254;DHT22;39148;53.332;6.922;2023-05-10T04:51:13;16.40;90.10
53254;DHT22;39148;53.332;6.922;2023-05-10T04:53:39;16.50;88.70
53254;DHT22;39148;53.332;6.922;2023-05-10T04:56:05;16.40;88.70
53254;DHT22;39148;53.332;6.922;2023-05-10T04:58:30;16.40;88.40
53254;DHT22;39148;53.332;6.922;2023-05-10T05:00:56;16.50;88.70
53254;DHT22;39148;53.332;6.922;2023-05-10T05:03:22;16.40;88.70
53254;DHT22;39148;53.332;6.922;2023-05-10T05:08:14;16.30;90.10
53254;DHT22;39148;53.332;6.922;2023-05-10T05:10:39;16.40;88.80
53254;DHT22;39148;53.332;6.922;2023-05-10T05:13:05;16.40;88.80
53254;DHT22;39148;53.332;6.922;2023-05-10T05:15:31;16.40;88.70
53254;DHT22;39148;53.332;6.922;2023-05-10T05:17:57;16.40;88.80
53254;DHT22;39148;53.332;6.922;2023-05-10T05:20:23;16.40;90.20
53254;DHT22;39148;53.332;6.922;2023-05-10T05:22:48;16.30;90.20
53254;DHT22;39148;53.332;6.922;2023-05-10T05:25:14;16.30;88.70
53254;DHT22;39148;53.332;6.922;2023-05-10T05:27:41;16.30;88.80
53254;DHT22;39148;53.332;6.922;2023-05-10T05:30:07;16.40;88.90
53254;DHT22;39148;53.332;6.922;2023-05-10T05:32:33;16.30;88.40
53254;DHT22;39148;53.332;6.922;2023-05-10T05:34:59;16.30;90.10
53254;DHT22;39148;53.332;6.922;2023-05-10T05:39:52;16.30;87.20
53254;DHT22;39148;53.332;6.922;2023-05-10T05:44:44;16.30;90.20
53254;DHT22;39148;53.332;6.922;2023-05-10T05:47:10;16.20;90.20
53254;DHT22;39148;53.332;6.922;2023-05-10T05:49:36;16.30;88.80
53254;DHT22;39148;53.332;6.922;2023-05-10T05:52:02;16.40;88.80
53254;DHT22;39148;53.332;6.922;2023-05-10T05:54:29;16.20;90.20
53254;DHT22;39148;53.332;6.922;2023-05-10T05:56:56;16.30;90.20
53254;DHT22;39148;53.332;6.922;2023-05-10T05:59:22;16.40;89.00
53254;DHT22;39148;53.332;6.922;2023-05-10T06:01:48;16.20;88.70
53254;DHT22;39148;53.332;6.922;2023-05-10T06:04:14;16.20;88.70
53254;DHT22;39148;53.332;6.922;2023-05-10T06:06:39;16.20;88.80
53254;DHT22;39148;53.332;6.922;2023-05-10T06:09:05;16.30;88.90
53254;DHT22;39148;53.332;6.922;2023-05-10T06:11:31;16.30;88.80
53254;DHT22;39148;53.332;6.922;2023-05-10T06:14:00;16.20;87.90
53254;DHT22;39148;53.332;6.922;2023-05-10T06:18:52;16.10;87.20
53254;DHT22;39148;53.332;6.922;2023-05-10T06:21:17;16.20;88.80
53254;DHT22;39148;53.332;6.922;2023-05-10T06:23:43;16.20;88.90
53254;DHT22;39148;53.332;6.922;2023-05-10T06:26:09;16.10;90.20
53254;DHT22;39148;53.332;6.922;2023-05-10T06:28:35;16.20;88.90
53254;DHT22;39148;53.332;6.922;2023-05-10T06:31:03;16.10;90.30
53254;DHT22;39148;53.332;6.922;2023-05-10T06:33:29;16.10;90.20
53254;DHT22;39148;53.332;6.922;2023-05-10T06:35:55;16.10;90.30
53254;DHT22;39148;53.332;6.922;2023-05-10T06:38:21;16.20;89.00
53254;DHT22;39148;53.332;6.922;2023-05-10T06:40:47;16.10;90.30
53254;DHT22;39148;53.332;6.922;2023-05-10T06:45:38;16.20;90.30
53254;DHT22;39148;53.332;6.922;2023-05-10T06:48:04;16.20;89.00
53254;DHT22;39148;53.332;6.922;2023-05-10T06:52:56;16.10;87.40
53254;DHT22;39148;53.332;6.922;2023-05-10T06:55:22;16.20;90.30
53254;DHT22;39148;53.332;6.922;2023-05-10T07:00:14;16.00;90.30
53254;DHT22;39148;53.332;6.922;2023-05-10T07:02:40;16.10;88.70
53254;DHT22;39148;53.332;6.922;2023-05-10T07:05:06;16.10;90.30
53254;DHT22;39148;53.332;6.922;2023-05-10T07:07:32;16.10;88.90
53254;DHT22;39148;53.332;6.922;2023-05-10T07:09:58;16.00;90.40
53254;DHT22;39148;53.332;6.922;2023-05-10T07:12:24;16.10;88.00
53254;DHT22;39148;53.332;6.922;2023-05-10T07:14:50;15.90;90.30
53254;DHT22;39148;53.332;6.922;2023-05-10T07:17:15;16.20;90.40
53254;DHT22;39148;53.332;6.922;2023-05-10T07:19:41;16.20;90.30
53254;DHT22;39148;53.332;6.922;2023-05-10T07:22:07;16.00;89.00
53254;DHT22;39148;53.332;6.922;2023-05-10T07:24:33;16.10;89.10
53254;DHT22;39148;53.332;6.922;2023-05-10T07:26:59;16.00;90.30
53254;DHT22;39148;53.332;6.922;2023-05-10T07:29:25;16.00;89.00
53254;DHT22;39148;53.332;6.922;2023-05-10T07:31:51;16.20;90.40
53254;DHT22;39148;53.332;6.922;2023-05-10T07:34:16;16.00;89.10
53254;DHT22;39148;53.332;6.922;2023-05-10T07:36:42;16.00;89.00
53254;DHT22;39148;53.332;6.922;2023-05-10T07:39:08;16.10;89.10
53254;DHT22;39148;53.332;6.922;2023-05-10T07:41:33;16.00;90.30
53254;DHT22;39148;53.332;6.922;2023-05-10T07:46:25;15.90;87.50
53254;DHT22;39148;53.332;6.922;2023-05-10T07:48:51;16.00;89.10
53254;DHT22;39148;53.332;6.922;2023-05-10T07:51:16;16.00;89.10
53254;DHT22;39148;53.332;6.922;2023-05-10T07:53:42;16.00;89.10
53254;DHT22;39148;53.332;6.922;2023-05-10T07:56:28;16.10;90.30
53254;DHT22;39148;53.332;6.922;2023-05-10T07:59:04;16.00;89.60
53254;DHT22;39148;53.332;6.922;2023-05-10T08:01:33;16.00;89.30
53254;DHT22;39148;53.332;6.922;2023-05-10T08:03:59;16.00;90.30
53254;DHT22;39148;53.332;6.922;2023-05-10T08:06:25;15.90;90.30
53254;DHT22;39148;53.332;6.922;2023-05-10T08:08:55;16.00;88.30
53254;DHT22;39148;53.332;6.922;2023-05-10T08:11:21;15.80;90.10
53254;DHT22;39148;53.332;6.922;2023-05-10T08:13:49;16.00;88.80
53254;DHT22;39148;53.332;6.922;2023-05-10T08:16:16;15.90;89.20
53254;DHT22;39148;53.332;6.922;2023-05-10T08:18:43;16.00;89.20
53254;DHT22;39148;53.332;6.922;2023-05-10T08:21:09;16.00;89.30
53254;DHT22;39148;53.332;6.922;2023-05-10T08:23:36;16.00;89.20
53254;DHT22;39148;53.332;6.922;2023-05-10T08:26:02;15.90;89.10
53254;DHT22;39148;53.332;6.922;2023-05-10T08:28:28;16.00;90.30
53254;DHT22;39148;53.332;6.922;2023-05-10T08:30:54;16.00;89.50
53254;DHT22;39148;53.332;6.922;2023-05-10T08:35:46;16.00;87.60
53254;DHT22;39148;53.332;6.922;2023-05-10T08:40:43;15.90;87.60
53254;DHT22;39148;53.332;6.922;2023-05-10T08:43:10;15.80;90.40
53254;DHT22;39148;53.332;6.922;2023-05-10T08:45:43;15.80;90.40
53254;DHT22;39148;53.332;6.922;2023-05-10T08:48:13;16.00;90.40
53254;DHT22;39148;53.332;6.922;2023-05-10T08:50:41;16.00;89.30
53254;DHT22;39148;53.332;6.922;2023-05-10T08:53:11;15.80;90.40
53254;DHT22;39148;53.332;6.922;2023-05-10T08:55:38;15.90;88.60
53254;DHT22;39148;53.332;6.922;2023-05-10T08:58:05;15.90;89.30
53254;DHT22;39148;53.332;6.922;2023-05-10T09:00:31;15.80;90.40
53254;DHT22;39148;53.332;6.922;2023-05-10T09:03:01;15.90;89.20
53254;DHT22;39148;53.332;6.922;2023-05-10T09:05:27;15.90;90.40
53254;DHT22;39148;53.332;6.922;2023-05-10T09:07:53;15.90;90.40
53254;DHT22;39148;53.332;6.922;2023-05-10T09:10:19;16.00;89.30
53254;DHT22;39148;53.332;6.922;2023-05-10T09:12:45;15.90;89.30
53254;DHT22;39148;53.332;6.922;2023-05-10T09:15:15;15.90;89.60
53254;DHT22;39148;53.332;6.922;2023-05-10T09:17:42;15.90;90.40
53254;DHT22;39148;53.332;6.922;2023-05-10T09:20:09;15.90;90.40
53254;DHT22;39148;53.332;6.922;2023-05-10T09:25:07;15.80;87.60
53254;DHT22;39148;53.332;6.922;2023-05-10T09:27:34;15.90;88.30
53254;DHT22;39148;53.332;6.922;2023-05-10T09:30:00;15.80;89.30
53254;DHT22;39148;53.332;6.922;2023-05-10T09:32:43;15.90;89.30
53254;DHT22;39148;53.332;6.922;2023-05-10T09:35:19;15.90;90.50
53254;DHT22;39148;53.332;6.922;2023-05-10T09:37:47;16.00;90.40
53254;DHT22;39148;53.332;6.922;2023-05-10T09:40:21;15.90;90.40
53254;DHT22;39148;53.332;6.922;2023-05-10T09:43:05;15.90;89.50
53254;DHT22;39148;53.332;6.922;2023-05-10T09:45:32;15.90;88.40
53254;DHT22;39148;53.332;6.922;2023-05-10T09:48:00;15.80;90.50
53254;DHT22;39148;53.332;6.922;2023-05-10T09:50:26;15.70;90.30
53254;DHT22;39148;53.332;6.922;2023-05-10T09:52:54;15.80;89.20
53254;DHT22;39148;53.332;6.922;2023-05-10T09:55:22;15.90;89.40
53254;DHT22;39148;53.332;6.922;2023-05-10T09:57:49;15.70;90.40
53254;DHT22;39148;53.332;6.922;2023-05-10T10:00:19;15.80;90.50
53254;DHT22;39148;53.332;6.922;2023-05-10T10:02:55;15.80;90.50
53254;DHT22;39148;53.332;6.922;2023-05-10T10:05:28;15.80;89.50
53254;DHT22;39148;53.332;6.922;2023-05-10T10:07:54;15.80;89.50
53254;DHT22;39148;53.332;6.922;2023-05-10T10:10:21;15.80;89.30
53254;DHT22;39148;53.332;6.922;2023-05-10T10:12:46;15.80;89.20
53254;DHT22;39148;53.332;6.922;2023-05-10T10:15:12;15.90;90.40
53254;DHT22;39148;53.332;6.922;2023-05-10T10:17:39;15.80;89.30
53254;DHT22;39148;53.332;6.922;2023-05-10T10:20:05;15.80;90.40
53254;DHT22;39148;53.332;6.922;2023-05-10T10:22:31;15.80;90.40
53254;DHT22;39148;53.332;6.922;2023-05-10T10:30:13;15.80;88.80
53254;DHT22;39148;53.332;6.922;2023-05-10T10:35:21;15.70;90.40
53254;DHT22;39148;53.332;6.922;2023-05-10T10:37:47;15.80;90.40
53254;DHT22;39148;53.332;6.922;2023-05-10T10:40:29;15.80;89.30
53254;DHT22;39148;53.332;6.922;2023-05-10T10:42:56;15.90;90.00
53254;DHT22;39148;53.332;6.922;2023-05-10T10:45:23;15.80;90.40
53254;DHT22;39148;53.332;6.922;2023-05-10T10:48:21;15.90;89.20
53254;DHT22;39148;53.332;6.922;2023-05-10T10:50:45;15.90;89.40
53254;DHT22;39148;53.332;6.922;2023-05-10T10:53:12;15.80;89.40
53254;DHT22;39148;53.332;6.922;2023-05-10T10:55:47;15.90;89.30
53254;DHT22;39148;53.332;6.922;2023-05-10T10:58:31;15.80;89.50
53254;DHT22;39148;53.332;6.922;2023-05-10T11:01:13;15.90;88.40
53254;DHT22;39148;53.332;6.922;2023-05-10T11:03:39;15.90;88.30
53254;DHT22;39148;53.332;6.922;2023-05-10T11:06:06;15.90;89.20
53254;DHT22;39148;53.332;6.922;2023-05-10T11:08:32;15.90;88.90
53254;DHT22;39148;53.332;6.922;2023-05-10T11:16:12;15.90;88.40
53254;DHT22;39148;53.332;6.922;2023-05-10T11:18:38;15.90;88.50
53254;DHT22;39148;53.332;6.922;2023-05-10T11:21:04;15.80;89.20
53254;DHT22;39148;53.332;6.922;2023-05-10T11:26:07;15.90;88.10
53254;DHT22;39148;53.332;6.922;2023-05-10T11:28:41;15.90;89.30
53254;DHT22;39148;53.332;6.922;2023-05-10T11:31:06;15.80;89.20
53254;DHT22;39148;53.332;6.922;2023-05-10T11:33:43;15.80;89.20
53254;DHT22;39148;53.332;6.922;2023-05-10T11:36:16;15.90;89.50
53254;DHT22;39148;53.332;6.922;2023-05-10T11:38:42;15.90;88.10
53254;DHT22;39148;53.332;6.922;2023-05-10T11:41:09;15.80;89.10
53254;DHT22;39148;53.332;6.922;2023-05-10T11:43:37;16.00;90.40
53254;DHT22;39148;53.332;6.922;2023-05-10T11:46:08;15.90;89.20
53254;DHT22;39148;53.332;6.922;2023-05-10T11:48:33;15.90;90.40
53254;DHT22;39148;53.332;6.922;2023-05-10T11:51:01;15.80;88.70
53254;DHT22;39148;53.332;6.922;2023-05-10T11:53:29;15.80;89.20
53254;DHT22;39148;53.332;6.922;2023-05-10T11:55:55;15.90;89.20
53254;DHT22;39148;53.332;6.922;2023-05-10T11:58:23;15.90;89.10
53254;DHT22;39148;53.332;6.922;2023-05-10T12:00:49;15.90;90.40
53254;DHT22;39148;53.332;6.922;2023-05-10T12:03:15;15.90;90.30
53254;DHT22;39148;53.332;6.922;2023-05-10T12:05:41;16.00;89.00
53254;DHT22;39148;53.332;6.922;2023-05-10T12:08:14;15.90;89.00
53254;DHT22;39148;53.332;6.922;2023-05-10T12:10:40;16.00;89.40
53254;DHT22;39148;53.332;6.922;2023-05-10T12:13:14;16.00;89.50
53254;DHT22;39148;53.332;6.922;2023-05-10T12:15:39;15.90;90.30
53254;DHT22;39148;53.332;6.922;2023-05-10T12:18:05;15.90;89.00
53254;DHT22;39148;53.332;6.922;2023-05-10T12:20:31;16.00;90.30
53254;DHT22;39148;53.332;6.922;2023-05-10T12:22:58;16.10;90.30
53254;DHT22;39148;53.332;6.922;2023-05-10T12:25:29;15.90;89.10
53254;DHT22;39148;53.332;6.922;2023-05-10T12:27:58;16.00;89.20
53254;DHT22;39148;53.332;6.922;2023-05-10T12:30:28;16.00;88.50
53254;DHT22;39148;53.332;6.922;2023-05-10T12:32:54;16.00;89.10
53254;DHT22;39148;53.332;6.922;2023-05-10T12:35:24;16.00;89.00
53254;DHT22;39148;53.332;6.922;2023-05-10T12:37:53;16.00;90.40
53254;DHT22;39148;53.332;6.922;2023-05-10T12:40:18;16.20;90.30
53254;DHT22;39148;53.332;6.922;2023-05-10T12:45:10;16.10;87.30
53254;DHT22;39148;53.332;6.922;2023-05-10T12:47:37;16.00;88.80
53254;DHT22;39148;53.332;6.922;2023-05-10T12:50:03;16.10;88.90
53254;DHT22;39148;53.332;6.922;2023-05-10T12:52:30;16.00;88.70
53254;DHT22;39148;53.332;6.922;2023-05-10T12:54:58;16.00;88.80
53254;DHT22;39148;53.332;6.922;2023-05-10T12:57:24;16.10;88.90
53254;DHT22;39148;53.332;6.922;2023-05-10T12:59:50;16.10;88.80
53254;DHT22;39148;53.332;6.922;2023-05-10T13:02:15;16.00;90.20
53254;DHT22;39148;53.332;6.922;2023-05-10T13:04:44;16.10;88.90
53254;DHT22;39148;53.332;6.922;2023-05-10T13:07:10;16.10;88.80
53254;DHT22;39148;53.332;6.922;2023-05-10T13:09:36;16.10;88.80
53254;DHT22;39148;53.332;6.922;2023-05-10T13:12:02;16.10;88.70
53254;DHT22;39148;53.332;6.922;2023-05-10T13:14:29;16.10;88.90
53254;DHT22;39148;53.332;6.922;2023-05-10T13:16:55;16.10;90.10
53254;DHT22;39148;53.332;6.922;2023-05-10T13:19:21;16.20;88.70
53254;DHT22;39148;53.332;6.922;2023-05-10T13:21:46;16.20;88.70
53254;DHT22;39148;53.332;6.922;2023-05-10T13:24:12;16.20;90.20
53254;DHT22;39148;53.332;6.922;2023-05-10T13:26:43;16.20;88.40
53254;DHT22;39148;53.332;6.922;2023-05-10T13:29:09;16.20;90.10
53254;DHT22;39148;53.332;6.922;2023-05-10T13:31:35;16.40;90.20
53254;DHT22;39148;53.332;6.922;2023-05-10T13:34:01;16.30;88.70
53254;DHT22;39148;53.332;6.922;2023-05-10T13:36:28;16.20;88.70
53254;DHT22;39148;53.332;6.922;2023-05-10T13:38:54;16.40;90.10
53254;DHT22;39148;53.332;6.922;2023-05-10T13:41:19;16.30;88.60
53254;DHT22;39148;53.332;6.922;2023-05-10T13:46:14;16.30;86.90
53254;DHT22;39148;53.332;6.922;2023-05-10T13:48:39;16.30;90.10
53254;DHT22;39148;53.332;6.922;2023-05-10T13:51:05;16.30;88.40
53254;DHT22;39148;53.332;6.922;2023-05-10T13:55:57;16.40;90.00
53254;DHT22;39148;53.332;6.922;2023-05-10T13:58:23;16.30;88.30
53254;DHT22;39148;53.332;6.922;2023-05-10T14:00:49;16.40;88.40
53254;DHT22;39148;53.332;6.922;2023-05-10T14:03:14;16.50;90.00
53254;DHT22;39148;53.332;6.922;2023-05-10T14:05:40;16.50;90.00
53254;DHT22;39148;53.332;6.922;2023-05-10T14:10:32;16.40;86.70
53254;DHT22;39148;53.332;6.922;2023-05-10T14:12:58;16.40;88.30
53254;DHT22;39148;53.332;6.922;2023-05-10T14:15:24;16.40;88.20
53254;DHT22;39148;53.332;6.922;2023-05-10T14:17:50;16.50;88.30
53254;DHT22;39148;53.332;6.922;2023-05-10T14:22:41;16.60;89.90
53254;DHT22;39148;53.332;6.922;2023-05-10T14:25:07;16.50;90.00
53254;DHT22;39148;53.332;6.922;2023-05-10T14:27:33;16.40;89.80
53254;DHT22;39148;53.332;6.922;2023-05-10T14:29:59;16.50;88.60
53254;DHT22;39148;53.332;6.922;2023-05-10T14:32:25;16.60;90.00
53254;DHT22;39148;53.332;6.922;2023-05-10T14:34:52;16.50;88.10
53254;DHT22;39148;53.332;6.922;2023-05-10T14:37:18;16.60;88.10
53254;DHT22;39148;53.332;6.922;2023-05-10T14:42:10;16.70;89.90
53254;DHT22;39148;53.332;6.922;2023-05-10T14:44:36;16.60;88.10
53254;DHT22;39148;53.332;6.922;2023-05-10T14:47:02;16.50;89.70
53254;DHT22;39148;53.332;6.922;2023-05-10T14:49:28;16.60;88.00
53254;DHT22;39148;53.332;6.922;2023-05-10T14:51:54;16.70;89.80
53254;DHT22;39148;53.332;6.922;2023-05-10T14:54:20;16.70;88.00
53254;DHT22;39148;53.332;6.922;2023-05-10T14:56:46;16.60;87.90
53254;DHT22;39148;53.332;6.922;2023-05-10T14:59:11;16.60;87.90
53254;DHT22;39148;53.332;6.922;2023-05-10T15:01:37;16.60;88.00
53254;DHT22;39148;53.332;6.922;2023-05-10T15:04:06;16.70;89.60
53254;DHT22;39148;53.332;6.922;2023-05-10T15:06:33;16.70;89.80
53254;DHT22;39148;53.332;6.922;2023-05-10T15:08:59;16.70;88.00
53254;DHT22;39148;53.332;6.922;2023-05-10T15:11:25;16.70;87.90
53254;DHT22;39148;53.332;6.922;2023-05-10T15:16:17;16.70;89.50
53254;DHT22;39148;53.332;6.922;2023-05-10T15:18:43;16.70;87.80
53254;DHT22;39148;53.332;6.922;2023-05-10T15:21:09;16.80;87.80
53254;DHT22;39148;53.332;6.922;2023-05-10T15:23:35;16.80;87.80
53254;DHT22;39148;53.332;6.922;2023-05-10T15:26:00;16.80;87.70
53254;DHT22;39148;53.332;6.922;2023-05-10T15:28:26;16.80;87.70
53254;DHT22;39148;53.332;6.922;2023-05-10T15:30:52;16.80;87.70
53254;DHT22;39148;53.332;6.922;2023-05-10T15:33:17;16.80;87.60
53254;DHT22;39148;53.332;6.922;2023-05-10T15:35:43;16.90;87.60
53254;DHT22;39148;53.332;6.922;2023-05-10T15:38:09;16.80;87.60
53254;DHT22;39148;53.332;6.922;2023-05-10T15:40:35;16.90;87.70
53254;DHT22;39148;53.332;6.922;2023-05-10T15:43:01;16.90;87.60
53254;DHT22;39148;53.332;6.922;2023-05-10T15:45:27;17.00;88.00
53254;DHT22;39148;53.332;6.922;2023-05-10T15:50:19;16.90;86.00
53254;DHT22;39148;53.332;6.922;2023-05-10T15:52:44;17.00;87.60
53254;DHT22;39148;53.332;6.922;2023-05-10T15:55:10;16.90;87.50
53254;DHT22;39148;53.332;6.922;2023-05-10T15:57:41;17.10;89.30
53254;DHT22;39148;53.332;6.922;2023-05-10T16:00:09;17.00;87.80
53254;DHT22;39148;53.332;6.922;2023-05-10T16:02:35;17.10;89.20
53254;DHT22;39148;53.332;6.922;2023-05-10T16:05:02;17.10;87.50
53254;DHT22;39148;53.332;6.922;2023-05-10T16:07:27;17.00;89.20
53254;DHT22;39148;53.332;6.922;2023-05-10T16:09:53;17.00;87.40
53254;DHT22;39148;53.332;6.922;2023-05-10T16:12:19;17.00;87.40
53254;DHT22;39148;53.332;6.922;2023-05-10T16:14:45;17.00;87.30
53254;DHT22;39148;53.332;6.922;2023-05-10T16:17:11;17.10;87.40
53254;DHT22;39148;53.332;6.922;2023-05-10T16:19:36;17.10;87.30
53254;DHT22;39148;53.332;6.922;2023-05-10T16:22:02;17.10;87.30
53254;DHT22;39148;53.332;6.922;2023-05-10T16:24:28;17.20;87.40
53254;DHT22;39148;53.332;6.922;2023-05-10T16:26:54;17.10;87.40
53254;DHT22;39148;53.332;6.922;2023-05-10T16:29:20;17.20;87.30
53254;DHT22;39148;53.332;6.922;2023-05-10T16:31:46;17.20;87.20
53254;DHT22;39148;53.332;6.922;2023-05-10T16:34:11;17.10;89.00
53254;DHT22;39148;53.332;6.922;2023-05-10T16:36:37;17.10;89.00
53254;DHT22;39148;53.332;6.922;2023-05-10T16:39:03;17.20;87.20
53254;DHT22;39148;53.332;6.922;2023-05-10T16:41:32;17.30;87.30
53254;DHT22;39148;53.332;6.922;2023-05-10T16:43:58;17.30;87.40
53254;DHT22;39148;53.332;6.922;2023-05-10T16:46:25;17.20;87.20
53254;DHT22;39148;53.332;6.922;2023-05-10T16:48:50;17.30;87.20
53254;DHT22;39148;53.332;6.922;2023-05-10T16:51:16;17.30;87.20
53254;DHT22;39148;53.332;6.922;2023-05-10T16:53:42;17.30;87.10
53254;DHT22;39148;53.332;6.922;2023-05-10T16:56:09;17.30;87.10
53254;DHT22;39148;53.332;6.922;2023-05-10T16:58:34;17.30;87.20
53254;DHT22;39148;53.332;6.922;2023-05-10T17:01:00;17.30;87.00
53254;DHT22;39148;53.332;6.922;2023-05-10T17:03:26;17.30;88.80